Clovis ASC

2021-09-20 23:50:00

  • imperial
Date Time Air Temperature Relative Humidity Dewpoint Windchill Heat Index Wind Speed Wind Dir. Rain Solar Radiation Soil Temperature Soil Temperature
2m 2m 3m 3m 5cm 10cm
US/Mountain F % F F F MPH deg in MJ/m^2 F F
max avg avg
2021-09-20 00:00:00 66.6 39.7 41.3 66.6 66.6 4.7 4.7 3.7 223.1 219.4 0.00 0.0000000 76.2 79.4
2021-09-20 00:05:00 66.5 39.7 41.3 66.5 66.5 3.7 4.9 3.5 210.7 211.3 0.00 0.0000000 76.1 79.4
2021-09-20 00:10:00 66.6 40.8 42.0 66.6 66.6 4.0 4.4 3.6 190.2 192.5 0.00 0.0000000 76.0 79.3
2021-09-20 00:15:00 66.3 42.0 42.5 66.3 66.3 3.0 4.6 3.5 170.9 170.6 0.00 0.0000000 75.9 79.2
2021-09-20 00:20:00 65.8 43.0 42.7 65.8 65.8 3.3 4.0 3.3 177.1 172.3 0.00 0.0000000 75.8 79.2
2021-09-20 00:25:00 65.7 42.0 42.0 65.7 65.7 4.6 4.6 3.7 170.1 179.4 0.00 0.0000000 75.7 79.1
2021-09-20 00:30:00 65.7 43.0 42.6 65.7 65.7 3.3 4.2 3.4 174.7 174.7 0.00 0.0000000 75.6 79.0
2021-09-20 00:35:00 66.5 41.1 42.2 66.5 66.5 4.2 6.5 4.3 182.6 172.9 0.00 0.0000057 75.6 78.9
2021-09-20 00:40:00 67.7 38.1 41.2 67.7 67.7 6.7 7.1 5.4 202.1 195.3 0.00 0.0000020 75.5 78.9
2021-09-20 00:45:00 68.5 37.0 41.2 68.5 68.5 6.9 8.8 6.6 190.4 197.8 0.00 0.0000037 75.4 78.8
2021-09-20 00:50:00 68.8 37.3 41.7 68.8 68.8 5.1 7.8 6.0 191.0 196.3 0.00 0.0000000 75.4 78.7
2021-09-20 00:55:00 68.5 37.6 41.7 68.5 68.5 4.2 7.4 5.3 180.3 187.9 0.00 0.0000000 75.3 78.7
2021-09-20 01:00:00 68.0 38.7 41.9 68.0 68.0 3.8 4.6 3.6 155.3 172.4 0.00 0.0000000 75.3 78.6
2021-09-20 01:05:00 67.9 38.7 41.9 67.9 67.9 3.7 4.2 3.5 209.8 173.9 0.00 0.0000000 75.3 78.5
2021-09-20 01:10:00 68.6 37.7 41.8 68.6 68.6 6.7 6.9 5.3 198.7 201.9 0.00 0.0000000 75.2 78.5
2021-09-20 01:15:00 69.3 37.0 41.9 69.3 69.3 6.0 9.0 6.6 194.2 201.4 0.00 0.0000000 75.2 78.4
2021-09-20 01:20:00 69.8 36.4 41.9 69.8 69.8 6.7 9.6 6.5 190.1 198.8 0.00 0.0000000 75.1 78.4
2021-09-20 01:25:00 70.2 36.5 42.3 70.2 70.2 6.3 9.7 7.3 191.0 203.8 0.00 0.0000000 75.1 78.3
2021-09-20 01:30:00 70.3 36.2 42.2 70.3 70.3 8.7 9.9 7.4 203.7 208.4 0.00 0.0000000 75.1 78.2
2021-09-20 01:35:00 70.5 36.1 42.3 70.5 70.5 9.0 10.8 7.9 227.1 207.4 0.00 0.0000000 75.0 78.2
2021-09-20 01:40:00 71.1 35.7 42.6 71.1 71.1 8.5 11.9 9.0 195.7 203.1 0.00 0.0000000 75.0 78.1
2021-09-20 01:45:00 71.3 35.2 42.5 71.3 71.3 9.9 11.5 8.8 189.3 200.0 0.00 0.0000000 74.9 78.1
2021-09-20 01:50:00 71.6 35.0 42.5 71.6 71.6 11.0 11.3 9.4 195.3 204.2 0.00 0.0000000 74.9 78.0
2021-09-20 01:55:00 71.6 35.4 42.8 71.6 71.6 10.5 12.1 9.3 192.8 198.5 0.00 0.0000000 74.9 78.0
2021-09-20 02:00:00 71.7 35.2 42.7 71.7 71.7 9.9 11.5 9.3 203.0 196.7 0.00 0.0000000 74.9 77.9
2021-09-20 02:05:00 71.5 35.6 42.9 71.5 71.5 8.8 10.1 8.5 186.8 197.9 0.00 0.0000000 74.9 77.9
2021-09-20 02:10:00 71.6 35.5 42.9 71.6 71.6 9.0 12.4 9.4 202.7 200.2 0.00 0.0000000 74.8 77.8
2021-09-20 02:15:00 71.8 34.9 42.6 71.8 71.8 11.0 12.4 10.1 201.3 199.1 0.00 0.0000000 74.8 77.8
2021-09-20 02:20:00 72.0 34.8 42.7 72.0 72.0 9.4 12.2 9.7 205.2 197.5 0.00 0.0000000 74.8 77.8
2021-09-20 02:25:00 72.0 34.7 42.6 72.0 72.0 11.3 12.4 9.6 217.2 200.4 0.00 0.0000000 74.8 77.7
2021-09-20 02:30:00 72.1 34.6 42.7 72.1 72.1 11.2 13.7 10.5 209.7 202.3 0.00 0.0000000 74.7 77.7
2021-09-20 02:35:00 72.3 34.9 43.0 72.3 72.3 9.0 14.0 10.2 217.1 203.5 0.00 0.0000000 74.7 77.6
2021-09-20 02:40:00 71.8 35.2 42.9 71.8 71.8 8.8 11.7 9.5 193.4 206.2 0.00 0.0000000 74.7 77.6
2021-09-20 02:45:00 71.5 35.8 43.0 71.5 71.5 7.2 10.3 8.5 221.3 211.8 0.00 0.0000000 74.6 77.5
2021-09-20 02:50:00 71.0 36.1 42.8 71.0 71.0 6.3 11.0 8.6 208.9 222.0 0.00 0.0000000 74.6 77.5
2021-09-20 02:55:00 70.5 36.5 42.6 70.5 70.5 7.8 9.2 7.9 238.6 227.8 0.00 0.0000000 74.6 77.5
2021-09-20 03:00:00 70.4 36.4 42.5 70.4 70.4 7.4 11.5 8.5 229.0 229.0 0.00 0.0000000 74.5 77.4
2021-09-20 03:05:00 70.9 36.0 42.6 70.9 70.9 13.1 14.0 11.5 220.7 227.3 0.00 0.0000000 74.5 77.4
2021-09-20 03:10:00 70.6 36.8 42.9 70.6 70.6 8.8 11.9 10.1 233.8 231.9 0.00 0.0000000 74.4 77.3
2021-09-20 03:15:00 70.6 37.1 43.1 70.6 70.6 11.5 14.2 11.0 217.5 231.6 0.00 0.0000000 74.4 77.3
2021-09-20 03:20:00 70.3 37.7 43.3 70.3 70.3 9.9 13.3 10.5 229.8 231.1 0.00 0.0000000 74.3 77.3
2021-09-20 03:25:00 69.8 38.9 43.7 69.8 69.8 9.4 10.8 8.7 227.0 233.8 0.00 0.0000000 74.3 77.2
2021-09-20 03:30:00 70.0 38.6 43.6 70.0 70.0 11.3 12.8 10.2 225.1 227.9 0.00 0.0000000 74.2 77.2
2021-09-20 03:35:00 69.8 39.1 43.8 69.8 69.8 11.3 12.1 10.0 234.0 232.4 0.00 0.0000000 74.2 77.2
2021-09-20 03:40:00 69.7 39.5 44.0 69.7 69.7 9.0 12.2 9.9 243.1 228.9 0.00 0.0000000 74.1 77.1
2021-09-20 03:45:00 69.4 40.2 44.2 69.4 69.4 10.5 11.0 9.5 231.9 233.7 0.00 0.0000000 74.0 77.1
2021-09-20 03:50:00 69.3 40.5 44.2 69.3 69.3 9.9 11.2 9.7 229.0 236.6 0.00 0.0000000 74.0 77.0
2021-09-20 03:55:00 69.0 40.9 44.3 69.0 69.0 9.6 11.7 9.0 244.0 239.0 0.00 0.0000000 73.9 77.0
2021-09-20 04:00:00 68.8 41.3 44.3 68.8 68.8 9.9 11.2 9.0 222.7 236.0 0.00 0.0000000 73.8 76.9
2021-09-20 04:05:00 68.3 42.0 44.3 68.3 68.3 7.2 10.1 8.7 225.2 239.6 0.00 0.0000000 73.7 76.9
2021-09-20 04:10:00 67.9 42.5 44.3 67.9 67.9 8.1 11.0 8.8 251.2 236.4 0.00 0.0000000 73.7 76.8
2021-09-20 04:15:00 67.7 42.5 44.1 67.7 67.7 8.3 11.0 9.0 236.0 240.3 0.00 0.0000000 73.6 76.8
2021-09-20 04:20:00 67.4 42.7 43.9 67.4 67.4 10.6 11.2 9.4 237.6 236.8 0.00 0.0000000 73.6 76.7
2021-09-20 04:25:00 67.1 43.2 44.0 67.1 67.1 8.3 10.6 8.8 241.1 237.3 0.00 0.0000000 73.5 76.7
2021-09-20 04:30:00 67.0 43.2 43.9 67.0 67.0 7.4 11.2 9.0 241.6 240.3 0.00 0.0000000 73.4 76.7
2021-09-20 04:35:00 66.8 43.3 43.7 66.8 66.8 8.0 10.5 8.6 235.5 242.0 0.00 0.0000000 73.3 76.6
2021-09-20 04:40:00 66.5 43.3 43.5 66.5 66.5 8.7 10.1 8.5 245.6 238.3 0.00 0.0000000 73.2 76.6
2021-09-20 04:45:00 66.3 43.4 43.4 66.3 66.3 7.6 10.3 8.8 235.5 239.5 0.00 0.0000000 73.2 76.5
2021-09-20 04:50:00 66.3 43.9 43.7 66.3 66.3 8.3 9.9 8.3 242.9 237.2 0.00 0.0000000 73.1 76.5
2021-09-20 04:55:00 66.1 44.1 43.6 66.1 66.1 7.4 9.6 8.1 230.4 240.6 0.00 0.0000000 73.0 76.4
2021-09-20 05:00:00 65.7 44.5 43.4 65.7 65.7 8.1 9.6 7.8 241.8 238.5 0.00 0.0000000 72.9 76.4
2021-09-20 05:05:00 65.6 44.7 43.5 65.6 65.6 8.5 10.3 8.2 237.1 234.6 0.00 0.0000000 72.8 76.3
2021-09-20 05:10:00 65.8 44.6 43.6 65.8 65.8 8.7 10.6 8.9 243.7 238.6 0.00 0.0000000 72.8 76.2
2021-09-20 05:15:00 65.7 44.6 43.5 65.7 65.7 8.7 10.6 9.0 246.2 238.4 0.00 0.0000000 72.7 76.2
2021-09-20 05:20:00 65.6 44.7 43.5 65.6 65.6 9.2 10.8 9.0 250.6 238.8 0.00 0.0000000 72.6 76.2
2021-09-20 05:25:00 65.4 45.2 43.6 65.4 65.4 8.1 10.6 8.8 234.5 237.6 0.00 0.0000000 72.5 76.1
2021-09-20 05:30:00 65.1 45.4 43.5 65.1 65.1 9.4 9.7 8.6 232.8 235.9 0.00 0.0000000 72.4 76.1
2021-09-20 05:35:00 64.7 46.0 43.5 64.7 64.7 8.0 9.4 8.3 217.9 235.6 0.00 0.0000000 72.4 76.0
2021-09-20 05:40:00 64.4 46.6 43.5 64.4 64.4 7.8 9.7 8.1 217.9 234.5 0.00 0.0000000 72.3 76.0
2021-09-20 05:45:00 64.3 46.5 43.4 64.3 64.3 9.2 9.7 8.6 238.4 239.6 0.00 0.0000000 72.2 75.9
2021-09-20 05:50:00 64.5 46.5 43.5 64.5 64.5 9.6 10.5 8.9 236.2 241.2 0.00 0.0000000 72.1 75.8
2021-09-20 05:55:00 64.3 47.0 43.6 64.3 64.3 7.6 10.5 8.7 249.7 243.3 0.00 0.0000000 72.1 75.8
2021-09-20 06:00:00 63.9 47.4 43.5 63.9 63.9 8.8 9.6 8.1 242.6 244.7 0.00 0.0000000 72.0 75.7
2021-09-20 06:05:00 63.5 48.2 43.6 63.5 63.5 7.1 8.8 7.9 240.9 241.2 0.00 0.0000000 71.9 75.7
2021-09-20 06:10:00 62.9 49.2 43.6 62.9 62.9 8.3 8.3 7.5 245.3 240.8 0.00 0.0000000 71.8 75.7
2021-09-20 06:15:00 62.5 49.8 43.6 62.5 62.5 6.5 8.7 7.6 249.7 243.6 0.00 0.0000000 71.8 75.6
2021-09-20 06:20:00 62.7 49.5 43.5 62.7 62.7 9.2 9.7 8.3 245.8 248.1 0.00 0.0000000 71.7 75.5
2021-09-20 06:25:00 63.2 49.0 43.7 63.2 63.2 8.1 10.5 9.1 254.3 248.7 0.00 0.0000000 71.6 75.5
2021-09-20 06:30:00 63.4 48.9 43.9 63.4 63.4 9.4 11.2 9.5 242.5 249.3 0.00 0.0000000 71.5 75.4
2021-09-20 06:35:00 63.6 49.3 44.3 63.6 63.6 8.0 10.1 9.0 265.8 255.6 0.00 0.0000000 71.4 75.4
2021-09-20 06:40:00 63.3 49.9 44.3 63.3 63.3 8.3 9.4 8.2 257.2 258.4 0.00 0.0000114 71.4 75.3
2021-09-20 06:45:00 63.2 49.7 44.1 63.2 63.2 8.3 9.0 8.2 244.1 256.0 0.00 0.0005886 71.3 75.3
2021-09-20 06:50:00 63.3 49.8 44.3 63.3 63.3 7.1 9.4 8.0 273.2 260.8 0.00 0.0041827 71.2 75.2
2021-09-20 06:55:00 63.0 50.4 44.2 63.0 63.0 7.2 8.8 7.1 256.1 265.2 0.00 0.0100126 71.2 75.1
2021-09-20 07:00:00 62.9 50.7 44.3 62.9 62.9 8.0 8.8 7.5 246.2 250.8 0.00 0.0147200 71.1 75.1
2021-09-20 07:05:00 62.9 51.1 44.5 62.9 62.9 7.6 8.3 7.2 241.5 242.3 0.00 0.0190967 71.0 75.1
2021-09-20 07:10:00 62.7 51.3 44.4 62.7 62.7 9.0 9.6 8.1 244.1 242.8 0.00 0.0233825 71.0 75.0
2021-09-20 07:15:00 62.7 51.5 44.6 62.7 62.7 9.2 9.2 8.0 226.9 237.1 0.00 0.0280216 70.9 74.9
2021-09-20 07:20:00 63.4 49.6 44.2 63.4 63.4 8.3 9.2 8.2 235.6 238.0 0.00 0.0324266 70.9 74.9
2021-09-20 07:25:00 64.1 48.6 44.3 64.1 64.1 8.5 9.6 8.4 246.1 237.6 0.00 0.0368717 70.9 74.8
2021-09-20 07:30:00 64.7 47.8 44.5 64.7 64.7 8.1 9.6 7.9 235.0 239.1 0.00 0.0412939 70.9 74.8
2021-09-20 07:35:00 65.6 46.8 44.7 65.6 65.6 8.1 9.4 7.7 233.9 240.3 0.00 0.0456472 70.9 74.8
2021-09-20 07:40:00 66.5 45.6 44.9 66.5 66.5 8.8 10.3 8.2 226.7 239.4 0.00 0.0503792 70.9 74.7
2021-09-20 07:45:00 67.2 44.3 44.8 67.2 67.2 9.7 12.4 9.9 230.2 236.8 0.00 0.0550740 70.9 74.7
2021-09-20 07:50:00 68.3 43.4 45.2 68.3 68.3 9.4 12.2 10.0 230.8 238.4 0.00 0.0596873 71.0 74.6
2021-09-20 07:55:00 69.2 42.5 45.5 69.2 69.2 8.7 13.7 11.4 238.3 238.4 0.00 0.0647855 71.1 74.6
2021-09-20 08:00:00 69.9 40.8 45.0 69.9 69.9 13.5 15.3 11.9 239.7 238.9 0.00 0.0697550 71.2 74.6
2021-09-20 08:05:00 70.6 40.6 45.5 70.6 70.6 10.8 14.9 12.6 245.8 241.6 0.00 0.0744351 71.3 74.5
2021-09-20 08:10:00 71.8 39.2 45.6 71.8 71.8 13.0 14.7 12.3 228.4 243.7 0.00 0.0793003 71.4 74.5
2021-09-20 08:15:00 72.7 38.2 45.7 72.7 72.7 13.5 15.6 13.1 243.1 246.1 0.00 0.0841235 71.6 74.5
2021-09-20 08:20:00 73.4 37.0 45.5 73.4 73.4 14.0 15.5 13.5 246.6 245.9 0.00 0.0894531 71.8 74.5
2021-09-20 08:25:00 73.7 36.9 45.8 73.7 73.7 11.0 17.4 15.0 220.3 244.0 0.00 0.0946970 72.0 74.5
2021-09-20 08:30:00 74.2 36.4 45.8 74.2 74.2 13.7 18.1 14.5 259.4 244.5 0.00 0.0998517 72.2 74.5
2021-09-20 08:35:00 74.6 36.0 45.9 74.6 74.6 15.5 17.8 14.6 247.5 239.7 0.00 0.1046463 72.5 74.5
2021-09-20 08:40:00 75.0 34.9 45.4 75.0 75.0 15.6 18.1 14.9 246.0 245.4 0.00 0.1101109 72.7 74.5
2021-09-20 08:45:00 75.3 34.8 45.6 75.3 75.3 15.8 17.8 13.8 256.0 256.2 0.00 0.1145946 73.0 74.6
2021-09-20 08:50:00 75.9 33.7 45.2 75.9 75.9 14.9 16.9 14.1 241.2 255.4 0.00 0.1194630 73.2 74.6
2021-09-20 08:55:00 76.3 33.4 45.4 76.3 76.3 16.7 18.1 14.8 236.9 251.9 0.00 0.1243764 73.5 74.7
2021-09-20 09:00:00 76.7 33.3 45.6 76.7 76.7 14.9 21.0 15.7 247.7 247.0 0.00 0.1294240 73.8 74.7
2021-09-20 09:05:00 77.0 32.6 45.3 77.0 77.0 16.7 20.6 16.4 247.7 248.6 0.00 0.1349528 74.1 74.8
2021-09-20 09:10:00 77.3 32.3 45.4 77.3 77.3 14.4 18.9 16.6 244.0 251.4 0.00 0.1400080 74.4 74.9
2021-09-20 09:15:00 77.5 32.5 45.8 77.5 77.5 13.5 19.4 16.4 244.8 254.7 0.00 0.1446957 74.7 75.0
2021-09-20 09:20:00 78.2 31.3 45.4 78.2 78.2 15.3 21.0 16.8 263.4 252.3 0.00 0.1505688 75.0 75.1
2021-09-20 09:25:00 78.6 30.8 45.3 78.6 78.6 16.7 21.4 17.2 264.0 258.7 0.00 0.1544513 75.3 75.1
2021-09-20 09:30:00 78.5 31.2 45.6 78.5 78.5 13.5 21.7 17.4 254.0 255.1 0.00 0.1597080 75.7 75.3
2021-09-20 09:35:00 78.7 30.5 45.1 78.7 78.7 18.3 21.0 17.6 270.6 263.3 0.00 0.1636796 76.0 75.3
2021-09-20 09:40:00 78.8 30.8 45.4 78.8 78.8 16.0 20.3 17.0 269.9 263.1 0.00 0.1676465 76.3 75.5
2021-09-20 09:45:00 79.2 30.2 45.3 79.2 79.2 14.2 18.0 14.8 270.0 264.9 0.00 0.1709838 76.7 75.6
2021-09-20 09:50:00 79.3 29.8 45.1 79.3 79.3 18.5 22.4 17.5 239.0 250.1 0.00 0.1777245 77.0 75.7
2021-09-20 09:55:00 79.5 29.6 45.0 79.5 79.5 17.4 21.9 17.8 243.4 253.2 0.00 0.1822284 77.4 75.8
2021-09-20 10:00:00 79.8 28.8 44.6 79.8 79.8 18.5 20.3 17.2 253.6 256.2 0.00 0.1871157 77.7 75.9
2021-09-20 10:05:00 80.0 29.0 44.9 80.0 80.0 11.3 21.0 14.9 263.5 270.4 0.00 0.1900710 78.0 76.1
2021-09-20 10:10:00 79.8 29.9 45.5 79.8 79.8 12.2 21.0 15.8 262.8 268.7 0.00 0.1949030 78.4 76.2
2021-09-20 10:15:00 80.2 28.9 45.0 80.2 80.2 17.4 20.3 16.7 268.8 256.7 0.00 0.2003581 78.7 76.4
2021-09-20 10:20:00 80.2 30.3 46.2 80.2 80.2 18.3 19.0 14.3 298.2 271.8 0.00 0.2040229 79.1 76.5
2021-09-20 10:25:00 79.8 30.6 46.1 79.8 79.8 14.2 20.8 15.5 278.7 277.0 0.00 0.2069517 79.5 76.6
2021-09-20 10:30:00 80.2 30.3 46.2 80.2 80.2 12.6 18.0 13.0 302.6 281.4 0.00 0.2100655 79.8 76.8
2021-09-20 10:35:00 80.5 29.5 45.7 80.5 80.5 12.1 17.2 13.1 308.9 284.6 0.00 0.2127461 80.1 77.0
2021-09-20 10:40:00 80.4 30.8 46.9 80.4 80.4 6.3 14.9 11.1 276.5 288.2 0.00 0.2156194 80.3 77.1
2021-09-20 10:45:00 81.3 28.6 45.6 81.3 81.3 10.3 10.8 8.1 316.6 306.9 0.00 0.2181147 80.6 77.3
2021-09-20 10:50:00 81.6 28.4 45.7 81.6 81.6 8.8 12.1 8.6 323.1 309.5 0.00 0.2213566 80.9 77.4
2021-09-20 10:55:00 81.6 28.6 45.9 81.6 81.6 4.2 10.6 6.4 63.3 339.4 0.00 0.2246688 81.1 77.6
2021-09-20 11:00:00 81.9 28.5 46.0 81.9 81.9 5.5 8.8 5.3 66.1 15.0 0.00 0.2273975 81.4 77.8
2021-09-20 11:05:00 80.4 29.4 45.6 80.4 80.4 9.7 14.6 9.6 30.8 36.1 0.00 0.2289267 81.8 77.9
2021-09-20 11:10:00 79.8 30.4 46.0 79.8 79.8 5.1 14.2 9.5 61.4 33.2 0.00 0.2311294 82.2 78.1
2021-09-20 11:15:00 80.4 29.1 45.3 80.4 80.4 6.9 10.8 7.1 38.6 8.7 0.00 0.2343492 82.6 78.3
2021-09-20 11:20:00 81.2 29.5 46.4 81.2 81.2 10.8 11.3 6.6 61.8 26.8 0.00 0.2383526 83.1 78.5
2021-09-20 11:25:00 80.2 30.1 46.0 80.2 80.2 6.0 16.5 9.2 19.2 21.8 0.00 0.2400889 83.4 78.7
2021-09-20 11:30:00 80.4 29.8 46.0 80.4 80.4 9.0 11.0 8.4 35.9 32.6 0.00 0.2441038 83.9 78.9
2021-09-20 11:35:00 80.0 29.9 45.7 80.0 80.0 6.7 14.6 8.7 88.1 31.7 0.00 0.2439654 84.3 79.0
2021-09-20 11:40:00 79.2 30.6 45.6 79.2 79.2 8.3 13.3 8.6 26.4 13.1 0.00 0.2452773 84.7 79.2
2021-09-20 11:45:00 78.7 31.3 45.8 78.7 78.7 10.8 16.9 10.8 19.1 37.2 0.00 0.2469266 85.0 79.4
2021-09-20 11:50:00 79.1 30.9 45.8 79.1 79.1 8.1 14.7 8.9 3.2 29.3 0.00 0.2488881 85.3 79.6
2021-09-20 11:55:00 78.8 31.4 46.0 78.8 78.8 6.5 14.2 8.8 37.2 18.9 0.00 0.2501701 85.6 79.8
2021-09-20 12:00:00 79.2 31.0 45.9 79.2 79.2 6.9 12.1 7.7 31.6 31.3 0.00 0.2502127 86.0 80.0
2021-09-20 12:05:00 79.3 30.6 45.7 79.3 79.3 9.7 11.2 8.8 50.8 30.0 0.00 0.2525217 86.3 80.2
2021-09-20 12:10:00 78.8 31.2 45.8 78.8 78.8 5.6 13.0 9.3 66.0 31.9 0.00 0.2533246 86.6 80.3
2021-09-20 12:15:00 79.1 31.0 45.9 79.1 79.1 9.0 11.3 8.6 347.8 34.0 0.00 0.2544815 86.9 80.5
2021-09-20 12:20:00 80.0 30.9 46.6 80.0 80.0 5.6 12.1 7.3 26.1 13.7 0.00 0.2549125 87.2 80.7
2021-09-20 12:25:00 79.5 30.5 45.8 79.5 79.5 7.4 12.1 9.0 28.0 28.5 0.00 0.2550752 87.5 80.9
2021-09-20 12:30:00 79.5 30.1 45.4 79.5 79.5 7.2 12.8 8.2 334.6 26.0 0.00 0.2555715 87.8 81.0
2021-09-20 12:35:00 80.3 30.0 46.1 80.3 80.3 4.7 11.7 7.7 12.9 24.9 0.00 0.2567873 88.1 81.2
2021-09-20 12:40:00 80.2 29.5 45.5 80.2 80.2 12.1 13.9 8.5 22.3 26.1 0.00 0.2565541 88.4 81.3
2021-09-20 12:45:00 80.2 29.7 45.7 80.2 80.2 4.7 14.0 9.2 329.1 34.6 0.00 0.2569203 88.7 81.5
2021-09-20 12:50:00 79.6 30.6 46.0 79.6 79.6 7.1 12.2 8.7 36.8 30.9 0.00 0.2554745 88.9 81.6
2021-09-20 12:55:00 79.8 30.6 46.1 79.8 79.8 6.7 9.6 6.8 10.9 30.3 0.00 0.2561818 89.2 81.8
2021-09-20 13:00:00 79.7 30.3 45.8 79.7 79.7 12.6 12.8 8.7 50.2 32.4 0.00 0.2561747 89.5 81.9
2021-09-20 13:05:00 79.8 30.4 46.0 79.8 79.8 10.5 14.0 9.5 1.1 31.0 0.00 0.2542661 89.7 82.0
2021-09-20 13:10:00 79.3 30.1 45.3 79.3 79.3 13.0 13.0 9.4 50.0 36.4 0.00 0.2532285 90.0 82.2
2021-09-20 13:15:00 79.2 30.5 45.5 79.2 79.2 11.2 13.9 9.6 41.2 33.9 0.00 0.2531465 90.2 82.3
2021-09-20 13:20:00 79.3 30.6 45.7 79.3 79.3 9.2 11.2 7.3 7.3 31.3 0.00 0.2530392 90.4 82.5
2021-09-20 13:25:00 80.2 30.1 46.0 80.2 80.2 4.7 10.6 6.8 332.6 30.6 0.00 0.2513497 90.6 82.6
2021-09-20 13:30:00 80.3 29.6 45.6 80.3 80.3 12.4 14.0 8.7 70.0 53.0 0.00 0.2501342 90.8 82.7
2021-09-20 13:35:00 81.1 28.5 45.4 81.1 81.1 6.3 26.5 9.3 3.7 56.3 0.00 0.2470474 91.1 82.9
2021-09-20 13:40:00 81.0 29.2 45.9 81.0 81.0 8.8 11.2 7.4 32.4 13.7 0.00 0.2460849 91.3 83.0
2021-09-20 13:45:00 80.4 29.1 45.3 80.4 80.4 11.3 13.9 9.1 58.8 55.7 0.00 0.2465725 91.5 83.2
2021-09-20 13:50:00 80.6 28.6 45.0 80.6 80.6 9.7 11.5 8.2 72.9 57.9 0.00 0.2441002 91.7 83.3
2021-09-20 13:55:00 79.9 29.7 45.5 79.9 79.9 9.0 11.2 7.6 32.8 62.8 0.00 0.2427299 91.9 83.4
2021-09-20 14:00:00 80.9 29.3 45.9 80.9 80.9 5.5 10.5 7.9 57.2 57.2 0.00 0.2405015 92.1 83.6
2021-09-20 14:05:00 81.2 29.1 46.0 81.2 81.2 5.6 9.6 6.6 38.5 8.7 0.00 0.2376265 92.2 83.7
2021-09-20 14:10:00 81.8 28.1 45.6 81.8 81.8 8.0 9.6 6.8 95.3 41.2 0.00 0.2367691 92.4 83.8
2021-09-20 14:15:00 82.2 27.8 45.7 82.2 82.2 10.5 10.5 7.6 30.8 55.4 0.00 0.2352122 92.6 84.0
2021-09-20 14:20:00 81.6 29.1 46.3 81.6 81.6 10.3 14.4 8.3 34.0 52.2 0.00 0.2310711 92.8 84.1
2021-09-20 14:25:00 81.0 28.5 45.2 81.0 81.0 3.3 9.0 5.9 17.3 64.7 0.00 0.2275556 93.0 84.2
2021-09-20 14:30:00 81.7 28.2 45.6 81.7 81.7 5.1 7.6 5.3 24.1 58.5 0.00 0.2264792 93.1 84.4
2021-09-20 14:35:00 81.7 28.0 45.5 81.7 81.7 4.9 9.6 5.9 94.7 61.0 0.00 0.2238862 93.3 84.5
2021-09-20 14:40:00 82.0 27.5 45.2 82.0 82.0 7.8 10.8 6.0 96.5 103.2 0.00 0.2204636 93.5 84.6
2021-09-20 14:45:00 82.8 27.5 46.0 82.8 82.8 8.1 9.6 6.3 35.4 73.3 0.00 0.2183239 93.6 84.8
2021-09-20 14:50:00 82.1 28.1 45.8 82.1 82.1 6.0 11.0 7.8 59.1 70.3 0.00 0.2127561 93.8 84.9
2021-09-20 14:55:00 81.7 28.0 45.4 81.7 81.7 5.6 9.2 6.5 37.9 45.9 0.00 0.2086792 93.9 85.0
2021-09-20 15:00:00 82.6 27.2 45.4 82.6 82.6 10.1 10.1 6.5 95.8 66.7 0.00 0.2058577 94.0 85.1
2021-09-20 15:05:00 82.5 27.4 45.6 82.5 82.5 6.3 9.9 7.5 51.7 65.0 0.00 0.2024038 94.1 85.2
2021-09-20 15:10:00 82.6 27.5 45.7 82.6 82.6 8.7 11.0 7.2 79.1 56.7 0.00 0.1987708 94.2 85.3
2021-09-20 15:15:00 82.9 27.8 46.2 82.9 82.9 4.0 10.3 6.2 84.9 73.0 0.00 0.1955421 94.3 85.4
2021-09-20 15:20:00 82.5 26.9 45.1 82.5 82.5 7.2 10.3 5.8 42.2 39.5 0.00 0.1908317 94.3 85.5
2021-09-20 15:25:00 83.0 27.7 46.2 83.0 83.0 5.8 14.7 7.4 37.2 64.8 0.00 0.1868240 94.4 85.6
2021-09-20 15:30:00 82.6 26.9 45.1 82.6 82.6 9.2 11.0 7.4 83.5 60.6 0.00 0.1835613 94.4 85.7
2021-09-20 15:35:00 82.2 27.3 45.2 82.2 82.2 9.9 13.7 8.8 82.5 50.6 0.00 0.1786559 94.5 85.7
2021-09-20 15:40:00 82.0 27.2 44.9 82.0 82.0 4.9 12.1 8.2 342.8 49.9 0.00 0.1744410 94.5 85.8
2021-09-20 15:45:00 82.0 27.0 44.7 82.0 82.0 6.7 9.7 6.6 36.4 39.5 0.00 0.1713890 94.4 85.9
2021-09-20 15:50:00 82.5 26.2 44.4 82.5 82.5 2.8 8.5 5.9 62.7 68.6 0.00 0.1664980 94.4 86.0
2021-09-20 15:55:00 82.5 26.9 45.1 82.5 82.5 6.7 8.7 6.0 41.2 53.6 0.00 0.1617707 94.3 86.0
2021-09-20 16:00:00 82.5 26.9 45.1 82.5 82.5 5.1 8.1 5.6 83.8 60.1 0.00 0.1566090 94.3 86.0
2021-09-20 16:05:00 82.0 27.2 44.9 82.0 82.0 7.1 11.2 8.8 80.5 66.1 0.00 0.1525939 94.2 86.1
2021-09-20 16:10:00 82.5 26.6 44.8 82.5 82.5 8.7 10.3 6.2 51.9 67.3 0.00 0.1479719 94.2 86.1
2021-09-20 16:15:00 82.4 27.1 45.2 82.4 82.4 7.2 11.7 6.2 28.3 43.9 0.00 0.1430710 94.1 86.1
2021-09-20 16:20:00 82.2 26.6 44.5 82.2 82.2 5.1 9.6 6.2 26.7 39.1 0.00 0.1385024 94.0 86.1
2021-09-20 16:25:00 82.0 27.2 44.9 82.0 82.0 6.0 9.2 6.5 29.1 44.7 0.00 0.1333770 94.0 86.1
2021-09-20 16:30:00 82.3 27.1 45.0 82.3 82.3 3.8 7.2 5.6 26.1 45.8 0.00 0.1286093 93.8 86.1
2021-09-20 16:35:00 82.0 26.7 44.4 82.0 82.0 6.2 7.4 4.8 81.9 68.1 0.00 0.1244836 93.7 86.2
2021-09-20 16:40:00 81.9 27.6 45.2 81.9 81.9 6.7 9.6 6.6 58.0 60.0 0.00 0.1203649 93.6 86.2
2021-09-20 16:45:00 81.9 27.3 44.9 81.9 81.9 4.7 11.2 7.7 78.5 54.4 0.00 0.1152070 93.5 86.1
2021-09-20 16:50:00 82.0 27.3 45.1 82.0 82.0 6.7 10.5 7.0 56.4 47.7 0.00 0.1099085 93.3 86.2
2021-09-20 16:55:00 81.9 27.5 45.1 81.9 81.9 6.5 10.3 7.0 39.1 45.9 0.00 0.1045826 93.2 86.1
2021-09-20 17:00:00 82.4 26.4 44.5 82.4 82.4 11.5 12.1 8.3 69.1 59.7 0.00 0.0996281 93.0 86.1
2021-09-20 17:05:00 81.8 27.1 44.6 81.8 81.8 8.8 11.5 8.7 70.9 65.0 0.00 0.0946531 92.8 86.1
2021-09-20 17:10:00 81.8 27.1 44.6 81.8 81.8 10.5 12.8 9.6 66.6 57.0 0.00 0.0893705 92.6 86.1
2021-09-20 17:15:00 81.4 27.1 44.2 81.4 81.4 9.6 13.1 10.2 67.2 66.7 0.00 0.0846484 92.4 86.1
2021-09-20 17:20:00 81.2 27.3 44.4 81.2 81.2 10.5 10.5 8.5 60.6 62.4 0.00 0.0802264 92.2 86.0
2021-09-20 17:25:00 81.1 27.4 44.3 81.1 81.1 10.6 11.9 8.7 47.1 56.9 0.00 0.0747594 91.9 86.0
2021-09-20 17:30:00 80.9 27.8 44.6 80.9 80.9 6.9 12.6 9.6 67.0 71.8 0.00 0.0700707 91.7 86.0
2021-09-20 17:35:00 80.7 28.0 44.5 80.7 80.7 8.1 13.1 10.5 36.4 58.5 0.00 0.0654637 91.5 85.9
2021-09-20 17:40:00 80.3 27.8 44.1 80.3 80.3 8.7 13.9 9.1 82.6 55.9 0.00 0.0600717 91.2 85.9
2021-09-20 17:45:00 80.3 27.9 44.1 80.3 80.3 8.8 12.4 9.8 51.5 58.7 0.00 0.0550073 90.9 85.9
2021-09-20 17:50:00 79.9 28.3 44.1 79.9 79.9 12.2 13.0 10.6 51.1 58.8 0.00 0.0501740 90.6 85.8
2021-09-20 17:55:00 79.6 28.7 44.3 79.6 79.6 11.0 15.3 11.0 64.2 62.6 0.00 0.0456205 90.3 85.8
2021-09-20 18:00:00 79.5 28.8 44.2 79.5 79.5 11.2 11.7 10.0 61.8 60.4 0.00 0.0403332 89.9 85.7
2021-09-20 18:05:00 79.2 28.9 44.0 79.2 79.2 9.6 13.9 10.2 35.1 53.8 0.00 0.0359964 89.6 85.6
2021-09-20 18:10:00 78.8 29.0 43.9 78.8 78.8 11.7 11.9 10.1 56.6 62.9 0.00 0.0312674 89.2 85.6
2021-09-20 18:15:00 78.4 29.4 43.9 78.4 78.4 10.6 13.7 10.5 65.5 61.8 0.00 0.0266518 88.9 85.5
2021-09-20 18:20:00 78.1 29.8 44.0 78.1 78.1 9.0 12.2 9.6 43.4 56.0 0.00 0.0220317 88.5 85.5
2021-09-20 18:25:00 77.6 30.3 44.0 77.6 77.6 9.7 11.9 9.5 33.6 55.9 0.00 0.0176211 88.2 85.4
2021-09-20 18:30:00 77.1 30.6 43.8 77.1 77.1 12.8 12.8 10.3 60.8 56.8 0.00 0.0133866 87.8 85.3
2021-09-20 18:35:00 76.7 30.9 43.7 76.7 76.7 8.8 12.2 9.6 61.0 56.2 0.00 0.0091057 87.5 85.2
2021-09-20 18:40:00 76.1 31.6 43.8 76.1 76.1 7.4 11.2 7.8 54.3 55.6 0.00 0.0053878 87.2 85.1
2021-09-20 18:45:00 75.6 32.0 43.6 75.6 75.6 9.6 11.9 8.5 58.1 58.6 0.00 0.0026368 86.8 85.1
2021-09-20 18:50:00 75.1 32.5 43.6 75.1 75.1 8.5 11.0 8.1 76.9 59.6 0.00 0.0007920 86.5 85.0
2021-09-20 18:55:00 74.8 32.8 43.6 74.8 74.8 8.3 12.1 8.6 67.3 59.8 0.00 0.0000113 86.1 84.9
2021-09-20 19:00:00 74.3 33.3 43.6 74.3 74.3 8.5 9.6 8.5 62.2 61.0 0.00 0.0000000 85.8 84.8
2021-09-20 19:05:00 74.0 33.9 43.7 74.0 74.0 8.8 11.0 8.5 72.1 64.4 0.00 0.0000000 85.5 84.7
2021-09-20 19:10:00 73.4 34.3 43.6 73.4 73.4 8.3 8.8 7.5 57.3 61.6 0.00 0.0000000 85.2 84.6
2021-09-20 19:15:00 72.9 34.8 43.6 72.9 72.9 7.8 8.7 7.2 67.1 66.7 0.00 0.0000000 84.8 84.5
2021-09-20 19:20:00 72.4 35.2 43.4 72.4 72.4 8.1 9.4 7.0 73.1 67.8 0.00 0.0000000 84.5 84.4
2021-09-20 19:25:00 72.2 35.7 43.5 72.2 72.2 7.6 8.7 6.8 79.4 68.9 0.00 0.0000000 84.2 84.3
2021-09-20 19:30:00 72.0 36.0 43.5 72.0 72.0 9.2 9.4 7.3 73.2 67.2 0.00 0.0000000 83.9 84.2
2021-09-20 19:35:00 71.8 36.2 43.5 71.8 71.8 6.2 9.2 7.5 69.7 63.6 0.00 0.0000000 83.6 84.1
2021-09-20 19:40:00 71.6 36.4 43.5 71.6 71.6 7.4 9.9 7.6 50.4 63.6 0.00 0.0000000 83.4 83.9
2021-09-20 19:45:00 71.3 36.8 43.6 71.3 71.3 7.8 9.4 7.5 36.6 59.9 0.00 0.0000000 83.1 83.8
2021-09-20 19:50:00 70.9 37.2 43.5 70.9 70.9 7.2 9.4 6.9 63.6 60.7 0.00 0.0000000 82.8 83.7
2021-09-20 19:55:00 70.7 37.6 43.6 70.7 70.7 6.7 8.5 7.1 49.3 57.7 0.00 0.0000000 82.6 83.6
2021-09-20 20:00:00 70.4 38.0 43.5 70.4 70.4 7.1 9.0 7.1 49.0 57.3 0.00 0.0000000 82.3 83.5
2021-09-20 20:05:00 70.3 38.2 43.7 70.3 70.3 6.9 8.7 7.1 38.8 55.6 0.00 0.0000000 82.1 83.4
2021-09-20 20:10:00 69.7 39.0 43.7 69.7 69.7 5.6 8.0 6.5 59.6 50.8 0.00 0.0000000 81.8 83.3
2021-09-20 20:15:00 69.2 39.7 43.7 69.2 69.2 6.2 7.2 6.2 77.9 52.6 0.00 0.0000000 81.6 83.2
2021-09-20 20:20:00 68.8 40.2 43.7 68.8 68.8 8.0 8.7 7.0 59.6 56.5 0.00 0.0000000 81.4 83.0
2021-09-20 20:25:00 68.8 40.3 43.7 68.8 68.8 7.6 8.8 7.4 10.9 49.3 0.00 0.0000000 81.2 82.9
2021-09-20 20:30:00 68.6 40.7 43.8 68.6 68.6 7.1 11.3 7.7 92.3 46.1 0.00 0.0000000 80.9 82.8
2021-09-20 20:35:00 68.3 41.1 43.8 68.3 68.3 6.7 10.6 7.6 45.2 56.1 0.00 0.0000000 80.7 82.7
2021-09-20 20:40:00 68.1 41.4 43.7 68.1 68.1 7.6 9.6 7.8 44.0 55.3 0.00 0.0000000 80.5 82.6
2021-09-20 20:45:00 67.9 41.5 43.6 67.9 67.9 7.4 10.1 7.9 54.0 50.4 0.00 0.0000000 80.3 82.5
2021-09-20 20:50:00 67.8 41.6 43.6 67.8 67.8 6.5 9.2 7.6 33.5 52.9 0.00 0.0000000 80.1 82.4
2021-09-20 20:55:00 67.6 41.8 43.5 67.6 67.6 7.1 10.3 7.9 64.2 48.8 0.00 0.0000000 79.9 82.3
2021-09-20 21:00:00 67.3 42.2 43.6 67.3 67.3 7.6 9.7 7.5 40.9 51.6 0.00 0.0000000 79.7 82.1
2021-09-20 21:05:00 67.1 42.2 43.4 67.1 67.1 7.6 9.9 8.1 17.7 50.9 0.00 0.0000000 79.5 82.0
2021-09-20 21:10:00 66.8 42.6 43.4 66.8 66.8 10.8 10.8 8.4 80.8 54.1 0.00 0.0000000 79.4 81.9
2021-09-20 21:15:00 66.6 42.8 43.3 66.6 66.6 8.3 9.9 8.0 63.2 54.5 0.00 0.0000000 79.2 81.8
2021-09-20 21:20:00 66.3 43.4 43.4 66.3 66.3 7.8 9.9 7.6 44.0 52.3 0.00 0.0000000 79.0 81.7
2021-09-20 21:25:00 66.2 43.2 43.2 66.2 66.2 5.5 11.0 7.0 46.5 40.0 0.00 0.0000000 78.8 81.6
2021-09-20 21:30:00 66.1 43.3 43.1 66.1 66.1 7.1 8.8 6.9 57.3 47.3 0.00 0.0000000 78.6 81.5
2021-09-20 21:35:00 65.9 43.3 42.9 65.9 65.9 10.5 10.5 8.1 51.5 46.2 0.00 0.0000000 78.4 81.4
2021-09-20 21:40:00 65.8 43.2 42.8 65.8 65.8 5.8 13.0 6.8 29.4 39.1 0.00 0.0000000 78.3 81.3
2021-09-20 21:45:00 65.9 43.0 42.7 65.9 65.9 8.8 10.6 7.9 63.4 47.3 0.00 0.0000000 78.1 81.2
2021-09-20 21:50:00 65.7 42.8 42.5 65.7 65.7 10.5 11.2 9.2 57.4 54.0 0.00 0.0000000 77.9 81.1
2021-09-20 21:55:00 65.8 42.6 42.5 65.8 65.8 9.2 12.6 9.2 36.0 47.0 0.00 0.0000000 77.8 81.0
2021-09-20 22:00:00 65.6 42.6 42.3 65.6 65.6 8.5 11.2 8.4 37.4 46.9 0.00 0.0000000 77.6 80.9
2021-09-20 22:05:00 65.6 42.4 42.1 65.6 65.6 10.8 11.7 8.9 36.2 48.2 0.00 0.0000000 77.5 80.8
2021-09-20 22:10:00 65.4 42.5 42.0 65.4 65.4 11.7 12.6 10.2 57.1 48.5 0.00 0.0000000 77.3 80.7
2021-09-20 22:15:00 65.4 42.4 42.0 65.4 65.4 8.1 12.1 9.3 30.5 43.5 0.00 0.0000000 77.2 80.6
2021-09-20 22:20:00 65.3 42.6 42.0 65.3 65.3 6.2 10.1 6.7 42.3 41.4 0.00 0.0000000 77.0 80.5
2021-09-20 22:25:00 65.1 42.7 41.9 65.1 65.1 9.6 10.8 8.3 56.4 48.6 0.00 0.0000000 76.9 80.4
2021-09-20 22:30:00 64.9 42.8 41.7 64.9 64.9 7.4 13.3 9.0 63.0 48.0 0.00 0.0000000 76.7 80.3
2021-09-20 22:35:00 64.7 43.0 41.7 64.7 64.7 6.2 10.3 7.2 69.9 47.1 0.00 0.0000000 76.6 80.2
2021-09-20 22:40:00 64.6 43.4 41.8 64.6 64.6 8.7 10.6 7.8 46.2 50.6 0.00 0.0000000 76.5 80.1
2021-09-20 22:45:00 64.4 43.3 41.6 64.4 64.4 9.0 11.0 8.6 59.0 48.6 0.00 0.0000000 76.3 80.0
2021-09-20 22:50:00 64.4 43.3 41.6 64.4 64.4 9.0 9.2 7.5 26.8 46.8 0.00 0.0000000 76.2 79.9
2021-09-20 22:55:00 64.3 43.6 41.6 64.3 64.3 9.9 12.1 9.3 50.7 51.8 0.00 0.0000000 76.1 79.8
2021-09-20 23:00:00 64.2 43.6 41.6 64.2 64.2 10.6 11.5 9.5 56.3 54.8 0.00 0.0000000 76.0 79.7
2021-09-20 23:05:00 64.0 43.9 41.6 64.0 64.0 9.2 11.9 9.5 54.3 53.2 0.00 0.0000000 75.8 79.6
2021-09-20 23:10:00 64.0 43.7 41.5 64.0 64.0 10.8 13.9 10.6 70.5 57.9 0.00 0.0000000 75.7 79.5
2021-09-20 23:15:00 64.1 43.4 41.4 64.1 64.1 10.5 14.9 11.3 36.9 50.9 0.00 0.0000000 75.6 79.4
2021-09-20 23:20:00 63.9 43.4 41.2 63.9 63.9 8.8 14.0 10.4 47.6 50.9 0.00 0.0000000 75.5 79.3
2021-09-20 23:25:00 63.8 43.4 41.1 63.8 63.8 9.2 14.0 10.4 52.0 47.4 0.00 0.0000000 75.3 79.3
2021-09-20 23:30:00 63.6 43.9 41.2 63.6 63.6 9.9 11.7 8.5 25.4 44.0 0.00 0.0000000 75.2 79.1
2021-09-20 23:35:00 63.2 44.8 41.3 63.2 63.2 6.7 9.9 7.1 16.8 33.8 0.00 0.0000000 75.1 79.1
2021-09-20 23:40:00 62.9 44.6 41.0 62.9 62.9 7.6 12.4 8.2 349.3 34.7 0.00 0.0000000 75.0 78.9
2021-09-20 23:45:00 62.7 44.8 41.0 62.7 62.7 10.3 10.8 7.2 50.6 33.8 0.00 0.0000000 74.8 78.9
2021-09-20 23:50:00 62.7 44.5 40.7 62.7 62.7 11.2 14.6 10.1 36.1 47.0 0.00 0.0000000 74.7 78.8

Data is courtesy of the NM Climate Center. DO NOT USE IN LEGAL PROCEEDINGS.